Time,TemperatureF,DewpointF,PressureIn,WindDirection,WindDirectionDegrees,WindSpeedMPH,WindSpeedGustMPH,Humidity,HourlyPrecipIn,Conditions,Clouds,dailyrainin,SoftwareType,DateUTC
2013-03-01 00:03:00,35.6,34.0,29.59,WSW,238,0.0,-999.0,94,-99.99,,,0.00,weatherlink.com 1.10,2013-03-01 05:03:00,
2013-03-01 00:18:00,35.5,34.0,29.59,SSE,168,0.0,-999.0,94,-99.99,,,0.00,weatherlink.com 1.10,2013-03-01 05:18:00,
2013-03-01 00:33:00,35.3,34.0,29.58,SSE,168,0.0,-999.0,94,-99.99,,,0.00,weatherlink.com 1.10,2013-03-01 05:33:00,
2013-03-01 00:48:00,35.2,34.0,29.58,NW,317,0.0,-999.0,94,-99.99,,,0.00,weatherlink.com 1.10,2013-03-01 05:48:00,
2013-03-01 01:03:00,35.0,34.0,29.58,NW,318,0.0,-999.0,94,-99.99,,,0.00,weatherlink.com 1.10,2013-03-01 06:03:00,
2013-03-01 01:18:00,34.8,33.0,29.58,NW,323,0.0,-999.0,94,-99.99,,,0.00,weatherlink.com 1.10,2013-03-01 06:18:00,
2013-03-01 01:33:00,34.4,33.0,29.58,NW,317,0.0,-999.0,94,-99.99,,,0.00,weatherlink.com 1.10,2013-03-01 06:33:00,
2013-03-01 01:48:00,34.0,33.0,29.58,West,269,0.0,-999.0,95,-99.99,,,0.00,weatherlink.com 1.10,2013-03-01 06:48:00,
2013-03-01 02:03:00,33.9,33.0,29.58,West,269,0.0,-999.0,95,-99.99,,,0.00,weatherlink.com 1.10,2013-03-01 07:03:00,
2013-03-01 02:18:00,33.7,33.0,29.58,West,269,0.0,-999.0,95,-99.99,,,0.00,weatherlink.com 1.10,2013-03-01 07:18:00,
2013-03-01 02:33:00,33.4,32.0,29.58,West,269,0.0,-999.0,95,-99.99,,,0.00,weatherlink.com 1.10,2013-03-01 07:33:00,
2013-03-01 02:48:00,33.1,32.0,29.58,SW,236,0.0,-999.0,95,-99.99,,,0.00,weatherlink.com 1.10,2013-03-01 07:48:00,
2013-03-01 03:03:00,32.5,31.0,29.58,SSE,161,0.0,-999.0,95,-99.99,,,0.00,weatherlink.com 1.10,2013-03-01 08:03:00,
2013-03-01 03:18:00,32.1,31.0,29.58,West,269,0.0,-999.0,95,-99.99,,,0.00,weatherlink.com 1.10,2013-03-01 08:18:00,
2013-03-01 03:33:00,31.8,31.0,29.59,West,269,0.0,-999.0,95,-99.99,,,0.00,weatherlink.com 1.10,2013-03-01 08:33:00,
2013-03-01 03:48:00,31.7,31.0,29.59,West,269,0.0,-999.0,96,-99.99,,,0.00,weatherlink.com 1.10,2013-03-01 08:48:00,
2013-03-01 04:03:00,31.8,31.0,29.60,SE,124,0.0,-999.0,96,-99.99,,,0.00,weatherlink.com 1.10,2013-03-01 09:03:00,
2013-03-01 04:18:00,32.1,31.0,29.60,NNE,33,0.0,-999.0,96,-99.99,,,0.00,weatherlink.com 1.10,2013-03-01 09:18:00,
2013-03-01 04:33:00,32.6,31.0,29.61,East,101,0.0,-999.0,95,-99.99,,,0.00,weatherlink.com 1.10,2013-03-01 09:33:00,
2013-03-01 04:48:00,32.7,31.0,29.61,East,101,0.0,-999.0,94,-99.99,,,0.00,weatherlink.com 1.10,2013-03-01 09:48:00,
2013-03-01 05:03:00,32.8,31.0,29.61,WSW,242,2.0,-999.0,93,-99.99,,,0.00,weatherlink.com 1.10,2013-03-01 10:03:00,
2013-03-01 05:18:00,32.8,31.0,29.61,WNW,302,0.0,-999.0,92,-99.99,,,0.00,weatherlink.com 1.10,2013-03-01 10:18:00,
2013-03-01 05:33:00,32.6,31.0,29.61,WNW,302,0.0,-999.0,92,-99.99,,,0.00,weatherlink.com 1.10,2013-03-01 10:33:00,
2013-03-01 05:48:00,32.3,31.0,29.62,WNW,302,0.0,-999.0,93,-99.99,,,0.00,weatherlink.com 1.10,2013-03-01 10:48:00,
2013-03-01 06:03:00,32.4,31.0,29.62,WNW,302,0.0,-999.0,94,-99.99,,,0.00,weatherlink.com 1.10,2013-03-01 11:03:00,
2013-03-01 06:18:00,32.6,31.0,29.62,WNW,302,3.0,-999.0,94,-99.99,,,0.00,weatherlink.com 1.10,2013-03-01 11:18:00,
2013-03-01 06:33:00,33.1,31.0,29.63,WNW,302,0.0,-999.0,93,-99.99,,,0.00,weatherlink.com 1.10,2013-03-01 11:33:00,
2013-03-01 06:48:00,33.4,31.0,29.63,WNW,302,0.0,-999.0,92,-99.99,,,0.00,weatherlink.com 1.10,2013-03-01 11:48:00,
2013-03-01 07:03:00,33.6,31.0,29.64,WNW,302,0.0,-999.0,91,-99.99,,,0.00,weatherlink.com 1.10,2013-03-01 12:03:00,
2013-03-01 07:18:00,33.6,31.0,29.64,WNW,302,0.0,-999.0,90,-99.99,,,0.00,weatherlink.com 1.10,2013-03-01 12:18:00,
2013-03-01 07:33:00,33.6,31.0,29.65,WNW,298,0.0,-999.0,90,-99.99,,,0.00,weatherlink.com 1.10,2013-03-01 12:33:00,
2013-03-01 07:48:00,33.7,31.0,29.65,WNW,298,0.0,-999.0,89,-99.99,,,0.00,weatherlink.com 1.10,2013-03-01 12:48:00,
2013-03-01 08:03:00,33.9,31.0,29.65,WNW,302,0.0,-999.0,88,-99.99,,,0.00,weatherlink.com 1.10,2013-03-01 13:03:00,
2013-03-01 08:18:00,34.0,31.0,29.65,WNW,302,0.0,-999.0,88,-99.99,,,0.00,weatherlink.com 1.10,2013-03-01 13:18:00,
2013-03-01 08:33:00,34.0,31.0,29.65,WNW,302,1.0,-999.0,87,-99.99,,,0.00,weatherlink.com 1.10,2013-03-01 13:33:00,
2013-03-01 08:48:00,34.7,30.0,29.65,NW,309,1.0,-999.0,84,-99.99,,,0.00,weatherlink.com 1.10,2013-03-01 13:48:00,
2013-03-01 09:03:00,35.7,30.0,29.66,WNW,284,0.0,-999.0,81,-99.99,,,0.00,weatherlink.com 1.10,2013-03-01 14:03:00,
2013-03-01 09:18:00,36.9,30.0,29.66,West,271,3.0,-999.0,77,-99.99,,,0.00,weatherlink.com 1.10,2013-03-01 14:18:00,
2013-03-01 09:33:00,37.7,31.0,29.66,SSE,152,2.0,-999.0,77,-99.99,,,0.00,weatherlink.com 1.10,2013-03-01 14:33:00,
2013-03-01 09:48:00,38.3,30.0,29.66,West,267,4.0,-999.0,73,-99.99,,,0.00,weatherlink.com 1.10,2013-03-01 14:48:00,
2013-03-01 10:03:00,38.8,31.0,29.66,WSW,243,2.0,-999.0,73,-99.99,,,0.00,weatherlink.com 1.10,2013-03-01 15:03:00,
2013-03-01 10:18:00,38.9,30.0,29.67,West,275,5.0,-999.0,71,-99.99,,,0.00,weatherlink.com 1.10,2013-03-01 15:18:00,
2013-03-01 10:33:00,39.2,31.0,29.67,NW,312,3.0,-999.0,72,-99.99,,,0.00,weatherlink.com 1.10,2013-03-01 15:33:00,
2013-03-01 10:48:00,39.3,31.0,29.67,SSW,203,9.0,-999.0,72,-99.99,,,0.00,weatherlink.com 1.10,2013-03-01 15:48:00,
2013-03-01 11:03:00,39.4,31.0,29.67,West,278,4.0,-999.0,71,-99.99,,,0.00,weatherlink.com 1.10,2013-03-01 16:03:00,
2013-03-01 11:18:00,39.9,31.0,29.67,SSW,208,3.0,-999.0,70,-99.99,,,0.00,weatherlink.com 1.10,2013-03-01 16:18:00,
2013-03-01 11:33:00,40.0,31.0,29.67,SSW,200,1.0,-999.0,70,-99.99,,,0.00,weatherlink.com 1.10,2013-03-01 16:33:00,
2013-03-01 11:48:00,40.6,31.0,29.66,WSW,240,1.0,-999.0,68,-99.99,,,0.00,weatherlink.com 1.10,2013-03-01 16:48:00,
2013-03-01 12:03:00,40.9,31.0,29.66,SSW,192,4.0,-999.0,68,-99.99,,,0.00,weatherlink.com 1.10,2013-03-01 17:03:00,
2013-03-01 12:18:00,41.6,30.0,29.66,WSW,245,4.0,-999.0,64,-99.99,,,0.00,weatherlink.com 1.10,2013-03-01 17:18:00,
2013-03-01 12:33:00,41.4,30.0,29.66,SSE,150,1.0,-999.0,65,-99.99,,,0.00,weatherlink.com 1.10,2013-03-01 17:33:00,
2013-03-01 12:48:00,41.8,30.0,29.65,NW,311,4.0,-999.0,64,-99.99,,,0.00,weatherlink.com 1.10,2013-03-01 17:48:00,
2013-03-01 13:03:00,41.9,31.0,29.65,SW,229,2.0,-999.0,66,-99.99,,,0.00,weatherlink.com 1.10,2013-03-01 18:03:00,
2013-03-01 13:18:00,41.4,30.0,29.66,WSW,250,0.0,-999.0,64,-99.99,,,0.00,weatherlink.com 1.10,2013-03-01 18:18:00,
2013-03-01 13:33:00,40.7,30.0,29.65,NW,313,0.0,-999.0,65,-99.99,,,0.00,weatherlink.com 1.10,2013-03-01 18:33:00,
2013-03-01 13:48:00,41.0,29.0,29.65,West,279,2.0,-999.0,63,-99.99,,,0.00,weatherlink.com 1.10,2013-03-01 18:48:00,
2013-03-01 14:03:00,40.9,29.0,29.65,WNW,282,4.0,-999.0,64,-99.99,,,0.00,weatherlink.com 1.10,2013-03-01 19:03:00,
2013-03-01 14:18:00,40.5,29.0,29.65,SW,219,5.0,-999.0,64,-99.99,,,0.00,weatherlink.com 1.10,2013-03-01 19:18:00,
2013-03-01 14:33:00,40.1,29.0,29.66,WNW,300,2.0,-999.0,64,-99.99,,,0.00,weatherlink.com 1.10,2013-03-01 19:33:00,
2013-03-01 14:48:00,40.0,29.0,29.66,SW,235,0.0,-999.0,65,-99.99,,,0.00,weatherlink.com 1.10,2013-03-01 19:48:00,
2013-03-01 15:03:00,40.0,29.0,29.66,WNW,301,0.0,-999.0,66,-99.99,,,0.00,weatherlink.com 1.10,2013-03-01 20:03:00,
2013-03-01 15:18:00,39.8,30.0,29.66,WSW,238,0.0,-999.0,67,-99.99,,,0.00,weatherlink.com 1.10,2013-03-01 20:18:00,
2013-03-01 15:33:00,39.6,30.0,29.66,South,181,0.0,-999.0,68,-99.99,,,0.00,weatherlink.com 1.10,2013-03-01 20:33:00,
2013-03-01 15:48:00,39.5,30.0,29.66,WSW,243,1.0,-999.0,68,-99.99,,,0.00,weatherlink.com 1.10,2013-03-01 20:48:00,
2013-03-01 16:18:00,39.6,29.0,29.67,WNW,286,2.0,-999.0,66,-99.99,,,0.00,weatherlink.com 1.10,2013-03-01 21:18:00,
2013-03-01 16:33:00,39.6,29.0,29.68,SW,236,5.0,-999.0,65,-99.99,,,0.00,weatherlink.com 1.10,2013-03-01 21:33:00,
2013-03-01 16:48:00,39.1,29.0,29.68,SW,224,7.0,-999.0,66,-99.99,,,0.00,weatherlink.com 1.10,2013-03-01 21:48:00,
2013-03-01 17:04:00,38.7,29.0,29.68,NW,307,0.0,-999.0,69,-99.99,,,0.00,weatherlink.com 1.10,2013-03-01 22:04:00,
2013-03-01 17:18:00,38.3,30.0,29.69,West,277,0.0,-999.0,71,-99.99,,,0.00,weatherlink.com 1.10,2013-03-01 22:18:00,
2013-03-01 17:33:00,37.9,30.0,29.69,WNW,284,0.0,-999.0,72,-99.99,,,0.00,weatherlink.com 1.10,2013-03-01 22:33:00,
2013-03-01 17:48:00,37.6,30.0,29.69,NNW,337,0.0,-999.0,74,-99.99,,,0.00,weatherlink.com 1.10,2013-03-01 22:48:00,
2013-03-01 18:03:00,37.4,30.0,29.70,WNW,302,0.0,-999.0,75,-99.99,,,0.00,weatherlink.com 1.10,2013-03-01 23:03:00,
2013-03-01 18:18:00,37.2,30.0,29.70,SW,230,2.0,-999.0,76,-99.99,,,0.00,weatherlink.com 1.10,2013-03-01 23:18:00,
2013-03-01 18:33:00,37.0,30.0,29.71,SW,223,0.0,-999.0,77,-99.99,,,0.00,weatherlink.com 1.10,2013-03-01 23:33:00,
2013-03-01 18:48:00,36.8,31.0,29.72,SSW,192,4.0,-999.0,78,-99.99,,,0.00,weatherlink.com 1.10,2013-03-01 23:48:00,
2013-03-01 19:03:00,36.7,30.0,29.72,West,273,1.0,-999.0,78,-99.99,,,0.00,weatherlink.com 1.10,2013-03-02 00:03:00,
2013-03-01 19:18:00,36.7,30.0,29.72,West,259,1.0,-999.0,78,-99.99,,,0.00,weatherlink.com 1.10,2013-03-02 00:18:00,
2013-03-01 19:33:00,36.6,30.0,29.73,West,263,0.0,-999.0,78,-99.99,,,0.00,weatherlink.com 1.10,2013-03-02 00:33:00,
2013-03-01 19:48:00,36.4,30.0,29.73,WSW,254,0.0,-999.0,79,-99.99,,,0.00,weatherlink.com 1.10,2013-03-02 00:48:00,
2013-03-01 20:03:00,36.2,30.0,29.73,WNW,294,0.0,-999.0,79,-99.99,,,0.00,weatherlink.com 1.10,2013-03-02 01:03:00,
2013-03-01 20:18:00,36.1,30.0,29.73,WSW,247,0.0,-999.0,79,-99.99,,,0.00,weatherlink.com 1.10,2013-03-02 01:18:00,
2013-03-01 20:33:00,35.9,30.0,29.73,SSE,159,0.0,-999.0,79,-99.99,,,0.00,weatherlink.com 1.10,2013-03-02 01:33:00,
2013-03-01 20:48:00,35.9,30.0,29.73,West,267,1.0,-999.0,79,-99.99,,,0.00,weatherlink.com 1.10,2013-03-02 01:48:00,
2013-03-01 21:03:00,35.7,30.0,29.74,SW,229,1.0,-999.0,79,-99.99,,,0.00,weatherlink.com 1.10,2013-03-02 02:03:00,
2013-03-01 21:18:00,35.5,30.0,29.74,NW,319,1.0,-999.0,79,-99.99,,,0.00,weatherlink.com 1.10,2013-03-02 02:18:00,
2013-03-01 21:33:00,35.3,30.0,29.75,WNW,293,1.0,-999.0,80,-99.99,,,0.00,weatherlink.com 1.10,2013-03-02 02:33:00,
2013-03-01 21:48:00,35.1,30.0,29.75,SW,230,2.0,-999.0,80,-99.99,,,0.00,weatherlink.com 1.10,2013-03-02 02:48:00,
2013-03-01 22:03:00,34.9,30.0,29.75,SSW,204,0.0,-999.0,81,-99.99,,,0.00,weatherlink.com 1.10,2013-03-02 03:03:00,
2013-03-01 22:18:00,34.7,29.0,29.75,SSE,162,0.0,-999.0,81,-99.99,,,0.00,weatherlink.com 1.10,2013-03-02 03:18:00,
2013-03-01 22:33:00,34.6,29.0,29.75,WSW,242,0.0,-999.0,80,-99.99,,,0.00,weatherlink.com 1.10,2013-03-02 03:33:00,
2013-03-01 22:48:00,34.5,29.0,29.75,West,260,0.0,-999.0,80,-99.99,,,0.00,weatherlink.com 1.10,2013-03-02 03:48:00,
2013-03-01 23:03:00,34.4,29.0,29.75,WSW,244,0.0,-999.0,81,-99.99,,,0.00,weatherlink.com 1.10,2013-03-02 04:03:00,
2013-03-01 23:18:00,34.3,29.0,29.75,SW,233,0.0,-999.0,80,-99.99,,,0.00,weatherlink.com 1.10,2013-03-02 04:18:00,
2013-03-01 23:33:00,34.1,28.0,29.75,SSE,165,0.0,-999.0,78,-99.99,,,0.00,weatherlink.com 1.10,2013-03-02 04:33:00,
2013-03-01 23:48:00,33.9,27.0,29.75,SW,228,1.0,-999.0,76,-99.99,,,0.00,weatherlink.com 1.10,2013-03-02 04:48:00,